createdAt,value
2022-11-14T00:01:31.301Z,96.00
2022-11-14T00:04:16.849Z,95.90
2022-11-14T00:07:02.144Z,96.10
2022-11-14T00:09:47.444Z,96.10
2022-11-14T00:12:32.878Z,96.50
2022-11-14T00:15:18.373Z,96.40
2022-11-14T00:18:04.172Z,96.40
2022-11-14T00:20:51.190Z,96.70
2022-11-14T00:23:36.729Z,96.40
2022-11-14T00:26:22.262Z,96.30
2022-11-14T00:29:07.722Z,96.40
2022-11-14T00:31:53.100Z,96.30
2022-11-14T00:34:38.256Z,96.60
2022-11-14T00:37:23.866Z,96.80
2022-11-14T00:40:09.567Z,96.70
2022-11-14T00:42:55.138Z,96.80
2022-11-14T00:45:43.679Z,96.90
2022-11-14T00:48:29.123Z,96.80
2022-11-14T00:51:14.600Z,96.90
2022-11-14T00:53:59.904Z,97.10
2022-11-14T00:56:45.441Z,97.10
2022-11-14T00:59:30.594Z,97.40
2022-11-14T01:02:15.761Z,97.40
2022-11-14T01:05:02.230Z,97.60
2022-11-14T01:07:47.457Z,97.80
2022-11-14T01:10:32.704Z,97.70
2022-11-14T01:13:18.846Z,97.70
2022-11-14T01:16:04.190Z,97.70
2022-11-14T01:18:49.800Z,97.90
2022-11-14T01:21:35.137Z,98.30
2022-11-14T01:24:20.783Z,98.30
2022-11-14T01:27:06.400Z,98.30
2022-11-14T01:29:51.564Z,98.50
2022-11-14T01:32:36.756Z,98.40
2022-11-14T01:35:22.116Z,98.40
2022-11-14T01:38:07.438Z,98.50
2022-11-14T01:40:52.937Z,98.60
2022-11-14T01:43:39.722Z,98.50
2022-11-14T01:46:33.570Z,98.60
2022-11-14T01:49:22.252Z,98.50
2022-11-14T01:52:11.945Z,98.50
2022-11-14T01:55:00.951Z,98.60
2022-11-14T01:57:47.995Z,98.60
2022-11-14T02:00:33.653Z,98.60
2022-11-14T02:03:19.832Z,98.50
2022-11-14T02:06:07.569Z,98.60
2022-11-14T02:08:54.281Z,98.60
2022-11-14T02:11:43.550Z,98.50
2022-11-14T02:14:29.838Z,98.40
2022-11-14T02:17:32.184Z,98.40
2022-11-14T02:20:23.061Z,98.40
2022-11-14T02:23:12.316Z,98.40
2022-11-14T02:25:58.684Z,98.40
2022-11-14T02:28:44.063Z,98.40
2022-11-14T02:31:29.661Z,98.50
2022-11-14T02:34:19.718Z,98.40
2022-11-14T02:37:05.184Z,98.40
2022-11-14T02:39:50.412Z,98.50
2022-11-14T02:42:35.609Z,98.50
2022-11-14T02:45:21.315Z,98.60
2022-11-14T02:48:06.921Z,98.70
2022-11-14T02:50:52.302Z,98.60
2022-11-14T02:53:37.543Z,98.70
2022-11-14T02:56:22.780Z,98.70
2022-11-14T02:59:08.332Z,98.60
2022-11-14T03:01:54.006Z,98.60
2022-11-14T03:04:39.137Z,98.50
2022-11-14T03:07:24.501Z,98.50
2022-11-14T03:10:09.913Z,98.50
2022-11-14T03:12:56.078Z,98.50
2022-11-14T03:15:41.675Z,98.60
2022-11-14T03:18:27.425Z,98.50
2022-11-14T03:21:18.426Z,98.60
2022-11-14T03:24:04.312Z,98.50
2022-11-14T03:26:49.583Z,98.50
2022-11-14T03:29:34.853Z,98.40
2022-11-14T03:32:20.383Z,98.30
2022-11-14T03:35:06.138Z,98.30
2022-11-14T03:37:55.227Z,98.30
2022-11-14T03:40:42.265Z,98.30
2022-11-14T03:43:32.259Z,98.40
2022-11-14T03:46:17.775Z,98.60
2022-11-14T03:49:03.500Z,98.50
2022-11-14T03:51:48.699Z,98.50
2022-11-14T03:54:34.179Z,98.50
2022-11-14T03:57:19.599Z,98.60
2022-11-14T04:00:05.762Z,98.70
2022-11-14T04:02:51.153Z,98.90
2022-11-14T04:05:36.426Z,98.90
2022-11-14T04:08:21.997Z,98.80
2022-11-14T04:11:07.725Z,98.80
2022-11-14T04:13:53.028Z,98.70
2022-11-14T04:16:38.522Z,98.70
2022-11-14T04:19:23.704Z,98.60
2022-11-14T04:22:09.149Z,98.60
2022-11-14T04:24:54.197Z,98.60
2022-11-14T04:27:39.494Z,98.70
2022-11-14T04:30:25.192Z,98.70
2022-11-14T04:33:11.127Z,98.70
2022-11-14T04:35:56.368Z,98.70
2022-11-14T04:38:41.552Z,98.80
2022-11-14T04:41:26.784Z,98.70
2022-11-14T04:44:11.911Z,98.80
2022-11-14T04:46:57.220Z,98.80
2022-11-14T04:49:42.929Z,98.90
2022-11-14T04:52:28.202Z,99.00
2022-11-14T04:55:13.480Z,99.10
2022-11-14T04:57:58.909Z,99.10
2022-11-14T05:00:44.497Z,99.10
2022-11-14T05:03:29.824Z,99.20
2022-11-14T05:06:15.170Z,99.30
2022-11-14T05:09:00.700Z,99.30
2022-11-14T05:11:45.847Z,99.20
2022-11-14T05:14:34.259Z,99.30
2022-11-14T05:17:19.627Z,99.50
2022-11-14T05:20:05.425Z,99.40
2022-11-14T05:22:54.104Z,99.50
2022-11-14T05:25:39.589Z,99.70
2022-11-14T05:28:25.092Z,99.90
2022-11-14T05:31:13.693Z,99.90
2022-11-14T05:33:59.171Z,99.90
2022-11-14T05:36:44.224Z,99.90
2022-11-14T05:39:29.406Z,99.90
2022-11-14T05:42:14.585Z,99.90
2022-11-14T05:44:59.928Z,99.90
2022-11-14T05:47:45.493Z,99.90
2022-11-14T05:50:30.785Z,99.90
2022-11-14T05:53:16.264Z,99.90
2022-11-14T05:56:04.151Z,99.90
2022-11-14T05:58:49.701Z,99.90
2022-11-14T06:01:35.611Z,99.90
2022-11-14T06:04:22.068Z,99.90
2022-11-14T06:07:07.508Z,99.90
2022-11-14T06:09:55.068Z,99.90
2022-11-14T06:12:40.417Z,99.90
2022-11-14T06:15:25.928Z,99.90
2022-11-14T06:18:11.314Z,99.90
2022-11-14T06:21:08.649Z,99.90
2022-11-14T06:23:54.272Z,99.90
2022-11-14T06:26:39.818Z,99.90
2022-11-14T06:29:25.290Z,99.90
2022-11-14T06:32:10.424Z,99.90
2022-11-14T06:34:56.058Z,99.90
2022-11-14T06:37:41.509Z,99.90
2022-11-14T06:40:26.788Z,99.90
2022-11-14T06:43:12.321Z,99.90
2022-11-14T06:45:57.827Z,99.90
2022-11-14T06:48:43.969Z,99.90
2022-11-14T06:51:29.048Z,99.90
2022-11-14T06:54:14.795Z,99.90
2022-11-14T06:57:00.115Z,99.90
2022-11-14T06:59:45.536Z,99.90
2022-11-14T07:02:31.194Z,99.90
2022-11-14T07:05:16.750Z,99.90
2022-11-14T07:08:02.082Z,99.90
2022-11-14T07:10:47.233Z,99.90
2022-11-14T07:13:33.238Z,99.90
2022-11-14T07:16:19.654Z,99.90
2022-11-14T07:19:09.164Z,99.90
2022-11-14T07:21:54.570Z,99.90
2022-11-14T07:24:40.260Z,99.90
2022-11-14T07:27:25.431Z,99.90
2022-11-14T07:30:11.127Z,99.90
2022-11-14T07:33:00.077Z,99.90
2022-11-14T07:35:45.118Z,99.90
2022-11-14T07:38:32.139Z,99.90
2022-11-14T07:41:18.093Z,99.90
2022-11-14T07:44:03.362Z,99.90
2022-11-14T07:46:50.077Z,99.90
2022-11-14T07:49:35.459Z,99.90
2022-11-14T07:52:21.064Z,99.90
2022-11-14T07:55:06.883Z,99.90
2022-11-14T07:57:53.831Z,99.90
2022-11-14T08:00:39.404Z,99.90
2022-11-14T08:03:24.617Z,99.90
2022-11-14T08:06:12.213Z,99.90
2022-11-14T08:08:57.704Z,99.90
2022-11-14T08:11:48.827Z,99.90
2022-11-14T08:14:34.853Z,99.90
2022-11-14T08:17:23.746Z,99.90
2022-11-14T08:20:10.282Z,99.90
2022-11-14T08:23:04.313Z,99.90
2022-11-14T08:25:49.904Z,99.90
2022-11-14T08:28:35.496Z,99.90
2022-11-14T08:31:22.031Z,99.90
2022-11-14T08:34:07.206Z,99.90
2022-11-14T08:36:52.827Z,99.90
2022-11-14T08:39:38.134Z,99.90
2022-11-14T08:42:23.516Z,99.90
2022-11-14T08:45:09.134Z,99.90
2022-11-14T08:47:54.434Z,99.90
2022-11-14T08:50:40.123Z,99.90
2022-11-14T08:53:25.377Z,99.00
2022-11-14T08:56:11.076Z,98.00
2022-11-14T08:58:56.449Z,96.50
2022-11-14T09:01:42.772Z,94.60
2022-11-14T09:04:28.746Z,93.20
2022-11-14T09:07:14.616Z,92.50
2022-11-14T09:10:00.274Z,91.70
2022-11-14T09:12:45.664Z,91.10
2022-11-14T09:15:31.203Z,90.10
2022-11-14T09:18:16.545Z,90.50
2022-11-14T09:21:07.287Z,87.60
2022-11-14T09:23:55.160Z,87.20
2022-11-14T09:26:43.885Z,86.50
2022-11-14T09:29:29.092Z,85.80
2022-11-14T09:32:14.295Z,87.90
2022-11-14T09:35:00.128Z,89.50
2022-11-14T09:37:45.298Z,90.40
2022-11-14T09:40:34.714Z,91.40
2022-11-14T09:43:36.319Z,92.00
2022-11-14T09:46:25.572Z,92.60
2022-11-14T09:49:27.178Z,93.20
2022-11-14T09:52:17.812Z,93.40
2022-11-14T09:55:12.012Z,93.80
2022-11-14T09:57:57.736Z,94.20
2022-11-14T10:01:15.429Z,94.40
2022-11-14T10:04:18.221Z,94.50
2022-11-14T10:07:16.695Z,94.80
2022-11-14T10:10:12.966Z,94.90
2022-11-14T10:13:11.525Z,94.90
2022-11-14T10:16:19.505Z,95.00
2022-11-14T10:19:32.939Z,94.90
2022-11-14T10:22:31.558Z,94.90
2022-11-14T10:25:44.884Z,95.10
2022-11-14T10:28:48.785Z,95.00
2022-11-14T10:32:06.083Z,95.00
2022-11-14T10:35:01.110Z,95.10
2022-11-14T10:37:55.442Z,95.10
2022-11-14T10:41:19.345Z,95.10
2022-11-14T10:44:16.146Z,95.20
2022-11-14T10:47:10.428Z,95.30
2022-11-14T10:50:05.024Z,95.50
2022-11-14T10:52:55.981Z,95.60
2022-11-14T10:56:03.207Z,95.70
2022-11-14T10:58:49.784Z,95.70
2022-11-14T11:01:37.514Z,95.70
2022-11-14T11:04:30.115Z,95.80
2022-11-14T11:07:38.269Z,95.90
2022-11-14T11:10:42.814Z,96.10
2022-11-14T11:13:34.242Z,96.00
2022-11-14T11:16:22.134Z,96.10
2022-11-14T11:19:15.632Z,96.10
2022-11-14T11:22:00.742Z,96.10
2022-11-14T11:24:46.520Z,96.20
2022-11-14T11:27:32.104Z,96.20
2022-11-14T11:31:03.580Z,96.20
2022-11-14T11:34:39.438Z,96.20
2022-11-14T11:37:39.976Z,96.20
2022-11-14T11:40:27.270Z,96.10
2022-11-14T11:43:38.944Z,95.80
2022-11-14T11:46:52.293Z,95.60
2022-11-14T11:49:52.021Z,95.60
2022-11-14T11:53:13.905Z,95.40
2022-11-14T11:56:05.317Z,95.30
2022-11-14T11:58:59.198Z,95.50
2022-11-14T12:01:44.267Z,97.10
2022-11-14T12:04:30.659Z,93.10
2022-11-14T12:07:23.850Z,92.30
2022-11-14T12:10:18.755Z,91.20
2022-11-14T12:13:40.001Z,91.20
2022-11-14T12:17:16.099Z,91.50
2022-11-14T12:20:32.679Z,92.80
2022-11-14T12:23:36.366Z,92.10
2022-11-14T12:26:53.039Z,91.50
2022-11-14T12:29:53.244Z,91.70
2022-11-14T12:32:44.571Z,92.10
2022-11-14T12:35:34.864Z,91.90
2022-11-14T12:38:21.355Z,92.10
2022-11-14T12:41:07.856Z,92.30
2022-11-14T12:44:13.724Z,92.70
2022-11-14T12:47:08.082Z,92.60
2022-11-14T12:49:53.442Z,92.80
2022-11-14T12:52:43.632Z,93.20
2022-11-14T12:55:29.141Z,93.20
2022-11-14T12:58:36.161Z,93.40
2022-11-14T13:01:45.292Z,93.30
2022-11-14T13:04:42.801Z,93.50
2022-11-14T13:07:46.833Z,93.50
2022-11-14T13:10:37.502Z,93.60
2022-11-14T13:13:41.977Z,93.70
2022-11-14T13:16:50.656Z,93.50
2022-11-14T13:20:04.539Z,93.50
2022-11-14T13:22:50.168Z,93.70
2022-11-14T13:25:35.489Z,93.90
2022-11-14T13:28:39.099Z,94.10
2022-11-14T13:31:41.973Z,94.20
2022-11-14T13:34:40.146Z,94.30
2022-11-14T13:37:53.808Z,94.30
2022-11-14T13:40:54.049Z,94.50
2022-11-14T13:43:56.706Z,94.60
2022-11-14T13:46:51.170Z,94.60
2022-11-14T13:49:58.923Z,94.70
2022-11-14T13:52:47.033Z,94.70
2022-11-14T13:55:52.843Z,94.70
2022-11-14T13:59:04.365Z,94.70
2022-11-14T14:02:05.063Z,94.90
2022-11-14T14:04:53.180Z,94.90
2022-11-14T14:08:02.872Z,95.00
2022-11-14T14:11:24.042Z,95.00
2022-11-14T14:14:36.315Z,95.10
2022-11-14T14:17:39.031Z,95.20
2022-11-14T14:20:53.093Z,95.30
2022-11-14T14:24:15.697Z,95.40
2022-11-14T14:27:07.913Z,95.40
2022-11-14T14:30:14.692Z,95.50
2022-11-14T14:33:08.881Z,95.60
2022-11-14T14:35:54.604Z,95.50
2022-11-14T14:38:39.872Z,95.50
2022-11-14T14:41:30.741Z,95.60
2022-11-14T14:44:23.890Z,95.70
2022-11-14T14:47:40.080Z,95.70
2022-11-14T14:50:30.028Z,95.70
2022-11-14T14:53:25.078Z,95.80
2022-11-14T14:56:21.921Z,95.80
2022-11-14T14:59:23.351Z,95.90
2022-11-14T15:02:16.087Z,95.90
2022-11-14T15:05:02.702Z,95.90
2022-11-14T15:07:49.941Z,95.90
2022-11-14T15:10:35.791Z,95.90
2022-11-14T15:13:23.506Z,96.00
2022-11-14T15:16:10.527Z,95.90
2022-11-14T15:18:57.889Z,95.90
2022-11-14T15:21:43.911Z,95.90
2022-11-14T15:24:30.101Z,96.00
2022-11-14T15:27:17.912Z,96.00
2022-11-14T15:30:07.065Z,96.00
2022-11-14T15:33:00.972Z,96.10
2022-11-14T15:35:46.135Z,96.10
2022-11-14T15:38:46.932Z,96.10
2022-11-14T15:41:33.362Z,96.10
2022-11-14T15:44:32.939Z,96.10
2022-11-14T15:47:27.793Z,96.10
2022-11-14T15:50:13.069Z,96.10
2022-11-14T15:53:01.387Z,96.20
2022-11-14T15:55:46.767Z,96.20
2022-11-14T16:11:06.377Z,96.40
2022-11-14T16:13:51.624Z,96.40
2022-11-14T16:16:37.090Z,96.50
2022-11-14T16:19:22.625Z,96.50
2022-11-14T16:22:15.686Z,96.50
2022-11-14T16:25:01.148Z,96.50
2022-11-14T16:27:46.754Z,96.50
2022-11-14T16:30:32.499Z,96.40
2022-11-14T16:33:17.519Z,96.50
2022-11-14T16:36:03.011Z,96.50
2022-11-14T16:38:52.220Z,96.50
2022-11-14T16:41:37.600Z,96.60
2022-11-14T16:44:24.721Z,96.70
2022-11-14T16:47:14.536Z,96.70
2022-11-14T16:50:01.285Z,96.70
2022-11-14T16:52:46.763Z,96.80
2022-11-14T16:55:32.157Z,96.80
2022-11-14T16:58:17.362Z,96.80
2022-11-14T17:01:02.688Z,96.90
2022-11-14T17:03:48.250Z,96.90
2022-11-14T17:06:33.816Z,97.00
2022-11-14T17:09:19.451Z,97.00
2022-11-14T17:12:05.539Z,97.10
2022-11-14T17:14:50.816Z,97.10
2022-11-14T17:17:36.295Z,97.20
2022-11-14T17:20:21.513Z,97.20
2022-11-14T17:23:06.868Z,97.20
2022-11-14T17:25:52.019Z,97.20
2022-11-14T17:28:38.601Z,97.20
2022-11-14T17:31:23.684Z,97.30
2022-11-14T17:34:10.280Z,97.30
2022-11-14T17:36:55.764Z,97.40
2022-11-14T17:39:41.116Z,97.40
2022-11-14T17:42:26.375Z,97.40
2022-11-14T17:45:11.620Z,97.40
2022-11-14T17:47:56.787Z,97.40
2022-11-14T17:50:41.917Z,97.50
2022-11-14T17:53:27.319Z,97.50
2022-11-14T17:56:18.832Z,97.50
2022-11-14T17:59:04.409Z,97.50
2022-11-14T18:01:49.881Z,97.60
2022-11-14T18:04:35.393Z,97.60
2022-11-14T18:07:21.387Z,97.60
2022-11-14T18:10:07.385Z,97.60
2022-11-14T18:12:52.593Z,97.60
2022-11-14T18:15:39.042Z,97.70
2022-11-14T18:18:24.143Z,97.70
2022-11-14T18:21:12.349Z,97.70
2022-11-14T18:23:59.843Z,97.70
2022-11-14T18:26:45.504Z,97.60
2022-11-14T18:29:31.081Z,97.60
2022-11-14T18:32:16.757Z,97.70
2022-11-14T18:35:02.207Z,97.70
2022-11-14T18:37:47.612Z,97.80
2022-11-14T18:40:32.873Z,97.80
2022-11-14T18:43:18.404Z,97.90
2022-11-14T18:46:08.799Z,97.90
2022-11-14T18:48:57.283Z,97.90
2022-11-14T18:51:43.229Z,97.90
2022-11-14T18:54:28.607Z,97.90
2022-11-14T18:57:14.059Z,97.90
2022-11-14T18:59:59.479Z,98.00
2022-11-14T19:02:50.136Z,98.00
2022-11-14T19:05:35.961Z,98.10
2022-11-14T19:08:21.657Z,98.10
2022-11-14T19:11:30.893Z,98.20
2022-11-14T19:14:17.934Z,98.10
2022-11-14T19:17:04.575Z,98.10
2022-11-14T19:19:53.308Z,98.10
2022-11-14T19:22:38.867Z,98.10
2022-11-14T19:25:24.179Z,98.20
2022-11-14T19:28:09.497Z,98.10
2022-11-14T19:31:01.420Z,98.10
2022-11-14T19:33:46.541Z,98.10
2022-11-14T19:36:58.209Z,98.10
2022-11-14T19:39:37.823Z,98.00
2022-11-14T19:42:23.451Z,97.90
2022-11-14T19:45:08.918Z,98.00
2022-11-14T19:47:54.249Z,98.00
2022-11-14T19:50:39.660Z,98.00
2022-11-14T19:53:25.493Z,98.20
2022-11-14T19:56:13.377Z,98.20
2022-11-14T19:59:00.204Z,98.20
2022-11-14T20:01:45.797Z,98.30
2022-11-14T20:04:34.325Z,98.30
2022-11-14T20:07:23.154Z,98.30
2022-11-14T20:10:08.951Z,98.40
2022-11-14T20:12:54.370Z,98.40
2022-11-14T20:15:39.895Z,98.40
2022-11-14T20:18:25.438Z,98.50
2022-11-14T20:21:14.218Z,98.60
2022-11-14T20:23:59.562Z,98.70
2022-11-14T20:26:45.220Z,98.70
2022-11-14T20:29:30.692Z,98.80
2022-11-14T20:32:16.101Z,98.80
2022-11-14T20:35:01.572Z,98.90
2022-11-14T20:37:47.553Z,99.00
2022-11-14T20:40:33.745Z,99.20
2022-11-14T20:43:19.323Z,99.20
2022-11-14T20:46:08.069Z,99.30
2022-11-14T20:48:54.594Z,99.30
2022-11-14T20:51:40.021Z,99.30
2022-11-14T20:54:26.833Z,99.20
2022-11-14T20:57:12.118Z,99.20
2022-11-14T20:59:57.649Z,99.20
2022-11-14T21:02:43.198Z,99.20
2022-11-14T21:05:29.019Z,99.20
2022-11-14T21:08:16.365Z,99.10
2022-11-14T21:11:05.163Z,99.10
2022-11-14T21:13:56.851Z,99.00
2022-11-14T21:16:42.261Z,99.00
2022-11-14T21:19:29.296Z,99.00
2022-11-14T21:22:14.943Z,99.00
2022-11-14T21:25:01.773Z,99.10
2022-11-14T21:27:46.989Z,99.10
2022-11-14T21:30:34.544Z,99.10
2022-11-14T21:33:19.923Z,99.10
2022-11-14T21:36:29.666Z,99.20
2022-11-14T21:39:15.887Z,99.20
2022-11-14T21:42:02.002Z,99.20
2022-11-14T21:44:47.679Z,99.20
2022-11-14T21:47:34.163Z,99.20
2022-11-14T21:50:19.502Z,99.20
2022-11-14T21:53:15.679Z,99.20
2022-11-14T21:56:18.117Z,99.20
2022-11-14T21:59:16.072Z,99.20
2022-11-14T22:02:21.064Z,99.10
2022-11-14T22:05:07.189Z,99.10
2022-11-14T22:07:52.750Z,99.10
2022-11-14T22:10:38.407Z,99.10
2022-11-14T22:13:23.516Z,99.20
2022-11-14T22:16:11.303Z,99.20
2022-11-14T22:19:01.998Z,99.20
2022-11-14T22:21:50.535Z,99.20
2022-11-14T22:24:35.654Z,99.20
2022-11-14T22:27:21.013Z,99.20
2022-11-14T22:30:07.181Z,99.20
2022-11-14T22:32:52.607Z,99.10
2022-11-14T22:35:37.928Z,99.10
2022-11-14T22:38:23.160Z,99.10
2022-11-14T22:41:19.442Z,99.10
2022-11-14T22:44:04.891Z,99.10
2022-11-14T22:46:50.525Z,99.00
2022-11-14T22:49:35.963Z,99.10
2022-11-14T22:52:21.273Z,99.00
2022-11-14T22:55:06.832Z,99.00
2022-11-14T22:57:52.297Z,99.00
2022-11-14T23:00:38.198Z,99.00
2022-11-14T23:03:23.845Z,99.00
2022-11-14T23:06:14.757Z,99.10
2022-11-14T23:09:01.675Z,99.10
2022-11-14T23:11:47.013Z,99.20
2022-11-14T23:14:32.373Z,99.20
2022-11-14T23:17:17.769Z,99.20
2022-11-14T23:20:03.850Z,99.30
2022-11-14T23:22:49.305Z,99.30
2022-11-14T23:25:36.656Z,99.40
2022-11-14T23:28:21.924Z,99.40
2022-11-14T23:31:08.709Z,99.40
2022-11-14T23:33:55.487Z,99.50
2022-11-14T23:36:40.550Z,99.70
2022-11-14T23:39:25.814Z,99.70
2022-11-14T23:42:11.375Z,99.70
2022-11-14T23:44:56.593Z,99.70
2022-11-14T23:47:41.748Z,99.70
2022-11-14T23:50:27.156Z,99.80
2022-11-14T23:53:12.384Z,99.90
2022-11-14T23:56:00.044Z,99.90
2022-11-14T23:58:45.583Z,99.90
